Time;durP1;ratioP1;P1;durP2;ratioP2;P2;SDS_P1;SDS_P2;PMS_P1;PMS_P2;Temp;Humidity;BMP_temperature;BMP_pressure;BME280_temperature;BME280_humidity;BME280_pressure;Samples;Min_cycle;Max_cycle;Signal;HPM_P1;HPM_P2
2021/03/23 00:02:05;;;;;;;7.40;6.20;;;;;;;;;;5020137;28;20463;-64
2021/03/23 00:04:31;;;;;;;5.90;5.40;;;;;;;;;;5035339;28;21024;-64
2021/03/23 00:06:58;;;;;;;8.50;6.67;;;;;;;;;;5034392;28;20480;-64
2021/03/23 00:09:24;;;;;;;14.60;6.10;;;;;;;;;;5016173;28;20551;-64
2021/03/23 00:11:52;;;;;;;6.60;5.97;;;;;;;;;;5015669;28;20449;-65
2021/03/23 00:14:18;;;;;;;5.87;5.27;;;;;;;;;;5017344;28;20453;-65
2021/03/23 00:16:46;;;;;;;7.40;5.63;;;;;;;;;;5021232;28;20468;-65
2021/03/23 00:19:14;;;;;;;7.97;6.17;;;;;;;;;;5034529;28;20899;-64
2021/03/23 00:21:40;;;;;;;10.07;6.00;;;;;;;;;;5031749;28;20456;-65
2021/03/23 00:24:08;;;;;;;6.80;6.13;;;;;;;;;;5031941;28;20547;-64
2021/03/23 00:26:35;;;;;;;6.97;6.10;;;;;;;;;;5034787;28;20483;-64
2021/03/23 00:29:02;;;;;;;6.33;5.73;;;;;;;;;;5034870;28;20943;-65
2021/03/23 00:31:30;;;;;;;9.50;6.40;;;;;;;;;;5024829;28;20541;-65
2021/03/23 00:33:57;;;;;;;10.43;5.90;;;;;;;;;;5020234;28;20543;-64
2021/03/23 00:36:25;;;;;;;7.90;5.70;;;;;;;;;;5034999;28;20540;-65
2021/03/23 00:38:52;;;;;;;9.83;5.63;;;;;;;;;;5037095;28;20592;-65
2021/03/23 00:41:19;;;;;;;7.77;6.27;;;;;;;;;;5030413;28;20453;-65
2021/03/23 00:43:46;;;;;;;6.47;5.47;;;;;;;;;;5033733;28;20535;-65
2021/03/23 00:46:13;;;;;;;8.33;4.87;;;;;;;;;;5021110;28;20493;-65
2021/03/23 00:48:40;;;;;;;11.90;4.60;;;;;;;;;;5019803;28;20476;-65
2021/03/23 00:51:06;;;;;;;6.10;4.00;;;;;;;;;;5024676;28;20535;-65
2021/03/23 00:53:33;;;;;;;4.73;3.37;;;;;;;;;;5028083;28;20587;-65
2021/03/23 00:56:01;;;;;;;7.00;3.27;;;;;;;;;;5038224;28;20556;-65
2021/03/23 00:58:28;;;;;;;4.07;3.77;;;;;;;;;;5038641;28;20457;-65
2021/03/23 01:00:55;;;;;;;4.70;3.60;;;;;;;;;;5034920;28;20449;-65
2021/03/23 01:03:22;;;;;;;4.77;3.57;;;;;;;;;;5034624;28;20978;-65
2021/03/23 01:05:50;;;;;;;5.07;3.70;;;;;;;;;;5033504;28;21062;-65
2021/03/23 01:08:16;;;;;;;9.23;4.20;;;;;;;;;;5033881;28;20456;-65
2021/03/23 01:10:43;;;;;;;4.60;4.20;;;;;;;;;;5033822;28;20548;-65
2021/03/23 01:13:10;;;;;;;4.40;3.60;;;;;;;;;;5034008;28;20465;-65
2021/03/23 01:15:36;;;;;;;7.00;4.20;;;;;;;;;;5033034;28;21022;-64
2021/03/23 01:18:03;;;;;;;4.30;3.80;;;;;;;;;;5033224;28;20547;-64
2021/03/23 01:20:31;;;;;;;4.50;4.10;;;;;;;;;;5033798;28;20507;-64
2021/03/23 01:22:58;;;;;;;7.47;4.43;;;;;;;;;;5033922;28;20540;-64
2021/03/23 01:25:26;;;;;;;5.57;3.90;;;;;;;;;;5033569;28;20502;-65
2021/03/23 01:27:53;;;;;;;5.07;4.50;;;;;;;;;;5014011;28;20544;-64
2021/03/23 01:30:21;;;;;;;6.83;4.60;;;;;;;;;;5025945;28;20453;-65
2021/03/23 01:32:48;;;;;;;4.63;3.73;;;;;;;;;;5019073;28;20449;-65
2021/03/23 01:35:15;;;;;;;4.40;4.00;;;;;;;;;;5014293;28;20553;-65
2021/03/23 01:37:43;;;;;;;4.90;4.50;;;;;;;;;;5017351;28;21020;-65
2021/03/23 01:40:11;;;;;;;6.00;4.10;;;;;;;;;;5031418;28;20552;-65
2021/03/23 01:42:42;;;;;;;5.70;5.10;;;;;;;;;;5029370;28;20449;-65
2021/03/23 01:45:20;;;;;;;8.57;4.60;;;;;;;;;;5033019;28;20903;-66
2021/03/23 01:47:46;;;;;;;7.13;4.53;;;;;;;;;;5032479;28;20445;-64
2021/03/23 01:50:13;;;;;;;7.37;5.13;;;;;;;;;;5033486;28;20539;-64
2021/03/23 01:52:41;;;;;;;4.40;4.00;;;;;;;;;;5028162;28;21036;-64
2021/03/23 01:55:10;;;;;;;6.07;4.40;;;;;;;;;;5032714;28;20449;-64
2021/03/23 01:57:38;;;;;;;5.37;4.60;;;;;;;;;;5032841;28;20456;-65
2021/03/23 02:00:07;;;;;;;4.83;4.40;;;;;;;;;;5026532;28;20575;-65
2021/03/23 02:02:33;;;;;;;6.73;4.50;;;;;;;;;;5015680;28;20532;-64
2021/03/23 02:05:00;;;;;;;4.87;4.47;;;;;;;;;;5033057;28;20480;-65
2021/03/23 02:07:27;;;;;;;4.97;4.17;;;;;;;;;;5032015;28;20450;-65
2021/03/23 02:09:54;;;;;;;5.03;4.10;;;;;;;;;;5032481;28;20940;-64
2021/03/23 02:12:24;;;;;;;4.27;3.80;;;;;;;;;;5031887;28;20460;-65
2021/03/23 02:14:51;;;;;;;5.60;4.20;;;;;;;;;;5030743;28;20854;-64
2021/03/23 02:17:19;;;;;;;5.23;4.50;;;;;;;;;;5031464;28;20449;-64
2021/03/23 02:19:46;;;;;;;6.20;4.03;;;;;;;;;;5032963;28;20467;-65
2021/03/23 02:22:22;;;;;;;4.60;4.20;;;;;;;;;;5014122;28;20457;-64
2021/03/23 02:24:48;;;;;;;7.00;4.40;;;;;;;;;;5027442;28;20837;-65
2021/03/23 02:27:15;;;;;;;5.80;4.33;;;;;;;;;;5032011;28;20464;-64
2021/03/23 02:29:42;;;;;;;5.00;4.07;;;;;;;;;;5032084;28;20587;-64
2021/03/23 02:32:09;;;;;;;4.60;4.20;;;;;;;;;;5031986;28;20503;-64
2021/03/23 02:34:35;;;;;;;8.10;4.47;;;;;;;;;;5032735;28;20447;-64
2021/03/23 02:37:02;;;;;;;4.90;4.30;;;;;;;;;;5032009;28;20481;-64
2021/03/23 02:39:31;;;;;;;7.37;4.37;;;;;;;;;;5032372;28;20456;-64
2021/03/23 02:41:58;;;;;;;5.40;4.10;;;;;;;;;;5031673;28;20451;-64
2021/03/23 02:44:25;;;;;;;4.90;3.80;;;;;;;;;;5031236;28;20460;-64
2021/03/23 02:46:52;;;;;;;4.27;3.93;;;;;;;;;;5031315;28;20559;-64
2021/03/23 02:49:19;;;;;;;7.40;3.93;;;;;;;;;;5028126;28;20460;-64
2021/03/23 02:51:48;;;;;;;5.83;3.67;;;;;;;;;;5023932;28;20464;-64
2021/03/23 02:54:15;;;;;;;4.13;3.77;;;;;;;;;;5031957;28;20534;-66
2021/03/23 02:56:43;;;;;;;4.70;3.77;;;;;;;;;;5020050;28;20477;-65
2021/03/23 02:59:10;;;;;;;8.43;4.17;;;;;;;;;;5024752;28;20514;-63
2021/03/23 03:01:36;;;;;;;3.70;3.37;;;;;;;;;;5021380;28;20462;-64
2021/03/23 03:04:04;;;;;;;3.57;3.27;;;;;;;;;;5020282;28;20508;-64
2021/03/23 03:06:31;;;;;;;5.63;3.60;;;;;;;;;;5012049;28;20493;-64
2021/03/23 03:08:58;;;;;;;4.40;3.97;;;;;;;;;;5028634;28;20952;-65
2021/03/23 03:11:24;;;;;;;5.03;3.43;;;;;;;;;;5032208;28;20444;-64
2021/03/23 03:13:52;;;;;;;5.97;3.63;;;;;;;;;;5024580;28;20493;-64
2021/03/23 03:16:19;;;;;;;4.83;3.83;;;;;;;;;;5011928;28;20470;-65
2021/03/23 03:18:45;;;;;;;5.90;4.03;;;;;;;;;;5023374;28;20460;-64
2021/03/23 03:21:12;;;;;;;6.50;4.37;;;;;;;;;;5032256;28;20514;-64
2021/03/23 03:23:39;;;;;;;3.90;3.53;;;;;;;;;;5026034;28;21063;-64
2021/03/23 03:26:07;;;;;;;4.70;4.20;;;;;;;;;;5031861;28;20580;-65
2021/03/23 03:28:33;;;;;;;5.20;3.87;;;;;;;;;;5026930;28;20485;-64
2021/03/23 03:31:01;;;;;;;5.20;4.53;;;;;;;;;;5011760;28;20453;-64
2021/03/23 03:33:28;;;;;;;6.83;4.13;;;;;;;;;;5019682;28;20539;-64
2021/03/23 03:35:54;;;;;;;5.10;4.60;;;;;;;;;;5031972;28;20461;-65
2021/03/23 03:38:22;;;;;;;4.50;4.10;;;;;;;;;;5016504;28;20457;-64
2021/03/23 03:40:50;;;;;;;4.97;4.47;;;;;;;;;;5021619;28;20814;-64
2021/03/23 03:43:17;;;;;;;5.60;4.77;;;;;;;;;;5030084;28;20444;-65
2021/03/23 03:45:44;;;;;;;5.70;3.77;;;;;;;;;;5020319;28;20899;-64
2021/03/23 03:48:12;;;;;;;5.60;4.97;;;;;;;;;;5031644;28;20540;-63
2021/03/23 03:50:38;;;;;;;6.33;4.60;;;;;;;;;;5028196;28;20453;-64
2021/03/23 03:53:06;;;;;;;5.10;4.33;;;;;;;;;;5023606;28;20450;-64
2021/03/23 03:55:33;;;;;;;5.33;4.33;;;;;;;;;;5015558;28;20470;-65
2021/03/23 03:58:00;;;;;;;4.87;4.47;;;;;;;;;;5016995;28;20484;-64
2021/03/23 04:00:28;;;;;;;6.93;4.63;;;;;;;;;;5030522;28;20484;-64
2021/03/23 04:02:55;;;;;;;5.50;4.90;;;;;;;;;;5028067;28;20464;-65
2021/03/23 04:05:26;;;;;;;6.90;5.17;;;;;;;;;;5011714;28;20496;-65
2021/03/23 04:07:53;;;;;;;5.30;4.80;;;;;;;;;;5024058;28;20857;-64
2021/03/23 04:10:20;;;;;;;7.13;5.23;;;;;;;;;;5011747;28;20456;-65
2021/03/23 04:12:47;;;;;;;7.13;5.33;;;;;;;;;;5014461;28;20450;-64
2021/03/23 04:15:17;;;;;;;6.00;5.40;;;;;;;;;;5011568;28;20544;-64
2021/03/23 04:17:43;;;;;;;5.43;4.93;;;;;;;;;;5022085;28;20948;-65
2021/03/23 04:20:11;;;;;;;5.20;4.70;;;;;;;;;;5031715;28;20449;-64
2021/03/23 04:22:39;;;;;;;5.63;5.13;;;;;;;;;;5028497;28;20935;-64
2021/03/23 04:25:07;;;;;;;6.83;5.40;;;;;;;;;;5031413;28;20507;-64
2021/03/23 04:27:33;;;;;;;5.47;4.97;;;;;;;;;;5017140;28;20880;-63
2021/03/23 04:30:00;;;;;;;7.40;5.10;;;;;;;;;;5011736;28;20457;-64
2021/03/23 04:32:26;;;;;;;5.77;5.13;;;;;;;;;;5024291;28;20948;-64
2021/03/23 04:34:53;;;;;;;5.83;5.17;;;;;;;;;;5031075;28;20932;-64
2021/03/23 04:37:20;;;;;;;6.30;5.43;;;;;;;;;;5013925;28;20546;-64
2021/03/23 04:39:47;;;;;;;6.57;5.87;;;;;;;;;;5011589;28;20462;-64
2021/03/23 04:42:14;;;;;;;6.57;5.40;;;;;;;;;;5021449;28;20460;-65
2021/03/23 04:44:41;;;;;;;5.97;5.20;;;;;;;;;;5012196;28;20556;-64
2021/03/23 04:47:08;;;;;;;5.23;4.73;;;;;;;;;;5031210;28;20534;-64
2021/03/23 04:49:34;;;;;;;8.40;6.50;;;;;;;;;;5035244;28;20532;-64
2021/03/23 04:52:01;;;;;;;6.77;5.47;;;;;;;;;;5032814;28;20897;-65
2021/03/23 04:54:28;;;;;;;7.53;5.73;;;;;;;;;;5032975;28;20448;-63
2021/03/23 04:56:55;;;;;;;8.87;6.90;;;;;;;;;;5033002;28;20559;-64
2021/03/23 04:59:22;;;;;;;7.30;5.83;;;;;;;;;;5031488;28;20458;-64
2021/03/23 05:01:49;;;;;;;12.53;6.80;;;;;;;;;;5034445;28;20459;-64
2021/03/23 05:04:16;;;;;;;8.03;6.13;;;;;;;;;;5031014;28;20983;-64
2021/03/23 05:06:43;;;;;;;8.37;7.00;;;;;;;;;;5033388;28;20488;-64
2021/03/23 05:09:10;;;;;;;9.03;7.00;;;;;;;;;;5031102;28;20448;-65
2021/03/23 05:11:37;;;;;;;7.97;7.27;;;;;;;;;;5032445;28;20543;-64
2021/03/23 05:14:05;;;;;;;9.10;7.47;;;;;;;;;;5033774;28;20583;-64
2021/03/23 05:16:32;;;;;;;8.27;6.60;;;;;;;;;;5029544;28;20465;-64
2021/03/23 05:18:59;;;;;;;8.53;7.63;;;;;;;;;;5014899;28;20557;-65
2021/03/23 05:21:26;;;;;;;7.90;7.20;;;;;;;;;;5033035;28;20592;-65
2021/03/23 05:23:56;;;;;;;8.27;7.50;;;;;;;;;;5033751;28;20548;-64
2021/03/23 05:26:23;;;;;;;8.50;7.53;;;;;;;;;;5033345;28;20495;-65
2021/03/23 05:28:49;;;;;;;8.27;7.47;;;;;;;;;;5034488;28;20456;-64
2021/03/23 05:31:17;;;;;;;9.20;8.23;;;;;;;;;;5029619;28;20601;-65
2021/03/23 05:33:44;;;;;;;8.30;7.50;;;;;;;;;;5014181;28;20448;-65
2021/03/23 05:36:11;;;;;;;8.70;7.90;;;;;;;;;;5026788;28;20561;-64
2021/03/23 05:38:38;;;;;;;8.77;7.87;;;;;;;;;;5014136;28;20960;-65
2021/03/23 05:41:05;;;;;;;8.37;7.67;;;;;;;;;;5024307;28;20449;-64
2021/03/23 05:43:40;;;;;;;9.07;8.23;;;;;;;;;;5014263;28;20524;-65
2021/03/23 05:46:13;;;;;;;9.90;8.30;;;;;;;;;;5027062;28;20998;-63
2021/03/23 05:48:46;;;;;;;9.07;7.70;;;;;;;;;;5014115;28;20540;-64
2021/03/23 05:51:14;;;;;;;11.20;8.83;;;;;;;;;;5028682;28;20528;-65
2021/03/23 05:53:43;;;;;;;9.50;8.50;;;;;;;;;;5033669;28;20539;-65
2021/03/23 05:56:10;;;;;;;9.43;8.60;;;;;;;;;;5026965;28;21020;-64
2021/03/23 05:58:39;;;;;;;9.97;8.93;;;;;;;;;;5013895;28;20458;-63
2021/03/23 06:01:08;;;;;;;10.87;8.60;;;;;;;;;;5024820;28;20532;-65
2021/03/23 06:03:36;;;;;;;10.20;8.70;;;;;;;;;;5033902;28;20449;-65
2021/03/23 06:06:06;;;;;;;9.10;8.17;;;;;;;;;;5022350;28;20576;-64
2021/03/23 06:08:35;;;;;;;12.50;9.40;;;;;;;;;;5013486;28;20890;-64
2021/03/23 06:11:19;;;;;;;10.87;8.90;;;;;;;;;;5029981;28;20456;-64
2021/03/23 06:13:49;;;;;;;9.73;8.70;;;;;;;;;;5026898;28;20557;-64
2021/03/23 06:16:24;;;;;;;8.27;7.47;;;;;;;;;;5032561;28;20469;-64
2021/03/23 06:18:56;;;;;;;9.33;8.53;;;;;;;;;;5032878;28;20451;-65
2021/03/23 06:21:27;;;;;;;11.10;9.90;;;;;;;;;;5025078;28;20451;-65
2021/03/23 06:23:58;;;;;;;10.60;9.50;;;;;;;;;;5027340;28;20467;-64
2021/03/23 06:26:42;;;;;;;11.20;9.27;;;;;;;;;;5032630;28;20489;-64
2021/03/23 06:29:27;;;;;;;12.53;10.00;;;;;;;;;;5018860;28;20484;-64
2021/03/23 06:32:04;;;;;;;12.03;10.57;;;;;;;;;;5032817;28;20448;-65
2021/03/23 06:34:32;;;;;;;8.43;3.10;;;;;;;;;;5027607;28;20540;-65
2021/03/23 06:37:00;;;;;;;6.90;3.43;;;;;;;;;;5028879;28;20631;-66
2021/03/23 06:39:29;;;;;;;5.50;3.53;;;;;;;;;;5031308;28;20571;-66
2021/03/23 06:41:58;;;;;;;3.83;3.40;;;;;;;;;;5020845;28;20540;-64
2021/03/23 06:44:31;;;;;;;6.97;5.23;;;;;;;;;;5032580;28;20536;-65
2021/03/23 06:46:58;;;;;;;6.43;4.90;;;;;;;;;;5032746;28;20480;-65
2021/03/23 06:49:27;;;;;;;6.47;4.13;;;;;;;;;;5032019;28;21023;-65
2021/03/23 06:51:59;;;;;;;9.13;5.03;;;;;;;;;;5031555;28;20455;-64
2021/03/23 06:54:28;;;;;;;4.03;3.63;;;;;;;;;;5025860;28;20495;-64
2021/03/23 06:57:00;;;;;;;5.10;4.60;;;;;;;;;;5032341;28;20456;-65
2021/03/23 06:59:27;;;;;;;5.63;4.20;;;;;;;;;;5029205;28;20437;-64
2021/03/23 07:02:00;;;;;;;6.90;3.80;;;;;;;;;;5012662;28;20473;-63
2021/03/23 07:04:28;;;;;;;3.40;3.10;;;;;;;;;;5018921;28;20960;-66
2021/03/23 07:07:19;;;;;;;7.50;4.70;;;;;;;;;;5016663;28;20572;-64
2021/03/23 07:09:47;;;;;;;4.20;3.47;;;;;;;;;;5003645;28;20789;-65
2021/03/23 07:12:15;;;;;;;3.60;3.03;;;;;;;;;;5032381;28;20940;-64
2021/03/23 07:14:42;;;;;;;4.43;3.73;;;;;;;;;;5031820;28;20452;-65
2021/03/23 07:17:19;;;;;;;5.10;3.13;;;;;;;;;;5031792;28;20467;-64
2021/03/23 07:19:47;;;;;;;3.90;3.10;;;;;;;;;;5031693;28;20498;-64
2021/03/23 07:22:16;;;;;;;6.83;4.07;;;;;;;;;;5031621;28;20955;-64
2021/03/23 07:24:50;;;;;;;5.83;3.83;;;;;;;;;;5031095;28;20454;-64
2021/03/23 07:27:18;;;;;;;4.03;3.63;;;;;;;;;;5032065;28;20550;-63
2021/03/23 07:29:46;;;;;;;6.13;3.20;;;;;;;;;;5019418;28;20871;-64
2021/03/23 07:32:16;;;;;;;3.40;3.03;;;;;;;;;;5032483;28;20454;-64
2021/03/23 07:35:03;;;;;;;4.50;3.63;;;;;;;;;;5031121;28;20455;-64
2021/03/23 07:37:38;;;;;;;6.93;3.53;;;;;;;;;;5012710;28;20551;-64
2021/03/23 07:40:07;;;;;;;7.60;4.50;;;;;;;;;;5026271;28;20498;-64
2021/03/23 07:42:37;;;;;;;4.87;4.33;;;;;;;;;;5031268;28;20536;-65
2021/03/23 07:45:06;;;;;;;3.83;3.23;;;;;;;;;;5030901;28;20488;-64
2021/03/23 07:47:36;;;;;;;4.33;3.43;;;;;;;;;;5027824;28;20605;-65
2021/03/23 07:50:07;;;;;;;6.40;5.30;;;;;;;;;;5028498;28;20453;-64
2021/03/23 07:52:37;;;;;;;7.13;3.13;;;;;;;;;;5012096;28;20909;-64
2021/03/23 07:55:05;;;;;;;6.97;3.30;;;;;;;;;;5013248;28;21001;-67
2021/03/23 07:57:49;;;;;;;6.07;3.80;;;;;;;;;;5029525;28;20453;-64
2021/03/23 08:00:23;;;;;;;4.20;3.13;;;;;;;;;;5016338;28;20437;-64
2021/03/23 08:03:04;;;;;;;3.80;2.60;;;;;;;;;;5030053;28;20804;-64
2021/03/23 08:05:37;;;;;;;17.90;16.30;;;;;;;;;;5028135;28;20755;-64
2021/03/23 08:08:10;;;;;;;21.13;18.80;;;;;;;;;;5022975;28;20452;-64
2021/03/23 08:10:37;;;;;;;20.70;18.70;;;;;;;;;;5028537;28;20999;-64
2021/03/23 08:13:21;;;;;;;21.83;19.73;;;;;;;;;;5031502;28;20515;-65
2021/03/23 08:15:51;;;;;;;21.80;19.60;;;;;;;;;;5029013;28;20484;-64
2021/03/23 08:18:26;;;;;;;15.30;13.23;;;;;;;;;;5014598;28;20450;-64
2021/03/23 08:21:10;;;;;;;10.13;8.73;;;;;;;;;;5015959;28;20528;-64
2021/03/23 08:23:49;;;;;;;14.83;9.00;;;;;;;;;;5035266;28;20923;-64
2021/03/23 08:26:21;;;;;;;11.30;9.43;;;;;;;;;;5032579;28;20491;-65
2021/03/23 08:28:51;;;;;;;5.17;4.67;;;;;;;;;;5015259;28;20941;-65
2021/03/23 08:31:33;;;;;;;4.63;3.80;;;;;;;;;;5029231;28;20487;-65
2021/03/23 08:34:07;;;;;;;4.30;3.90;;;;;;;;;;5035195;28;20433;-64
2021/03/23 08:36:42;;;;;;;10.33;8.70;;;;;;;;;;5018796;28;20469;-65
2021/03/23 08:39:15;;;;;;;6.83;6.20;;;;;;;;;;5014938;28;20436;-66
2021/03/23 08:41:51;;;;;;;7.33;5.93;;;;;;;;;;5015556;28;20493;-65
2021/03/23 08:44:32;;;;;;;7.27;6.53;;;;;;;;;;5015359;28;20434;-66
2021/03/23 08:47:01;;;;;;;8.30;7.50;;;;;;;;;;5015879;28;20496;-65
2021/03/23 08:49:28;;;;;;;8.20;5.80;;;;;;;;;;5015121;28;20449;-66
2021/03/23 08:51:54;;;;;;;7.23;6.47;;;;;;;;;;5024603;28;20555;-65
2021/03/23 08:54:40;;;;;;;10.27;7.53;;;;;;;;;;5034824;28;20531;-65
2021/03/23 08:57:06;;;;;;;8.00;6.03;;;;;;;;;;5014617;28;20471;-66
2021/03/23 08:59:54;;;;;;;9.80;8.73;;;;;;;;;;5015088;28;20526;-66
2021/03/23 09:02:44;;;;;;;10.00;8.13;;;;;;;;;;5017049;28;20510;-66
2021/03/23 09:05:26;;;;;;;6.97;6.27;;;;;;;;;;5019056;28;20481;-66
2021/03/23 09:08:13;;;;;;;5.50;4.57;;;;;;;;;;5034541;28;20448;-67
2021/03/23 09:10:49;;;;;;;7.10;6.40;;;;;;;;;;5032266;28;20457;-67
2021/03/23 09:13:22;;;;;;;7.50;6.60;;;;;;;;;;5034967;28;20908;-66
2021/03/23 09:15:53;;;;;;;10.13;7.00;;;;;;;;;;5026162;28;20492;-64
2021/03/23 09:18:27;;;;;;;8.20;5.57;;;;;;;;;;5014947;28;20894;-65
2021/03/23 09:20:56;;;;;;;22.37;20.30;;;;;;;;;;5014472;28;20986;-64
2021/03/23 09:23:40;;;;;;;23.90;21.60;;;;;;;;;;5014499;28;20453;-64
2021/03/23 09:26:23;;;;;;;26.30;23.70;;;;;;;;;;5029655;28;21065;-65
2021/03/23 09:28:53;;;;;;;28.50;24.53;;;;;;;;;;5034402;28;20440;-64
2021/03/23 09:31:22;;;;;;;28.70;25.70;;;;;;;;;;5018325;28;20445;-66
2021/03/23 09:33:49;;;;;;;27.90;25.23;;;;;;;;;;5030766;28;20452;-65
2021/03/23 09:36:40;;;;;;;27.87;25.17;;;;;;;;;;5045448;28;20478;-67
2021/03/23 09:39:25;;;;;;;25.63;23.20;;;;;;;;;;5020050;28;20461;-66
2021/03/23 09:41:54;;;;;;;29.73;26.73;;;;;;;;;;5029825;28;20453;-66
2021/03/23 09:44:39;;;;;;;28.37;25.30;;;;;;;;;;5033753;28;20448;-66
2021/03/23 09:47:27;;;;;;;28.13;24.27;;;;;;;;;;5033209;28;20950;-66
2021/03/23 09:49:54;;;;;;;25.30;22.93;;;;;;;;;;5031128;28;20464;-66
2021/03/23 09:52:24;;;;;;;27.10;24.00;;;;;;;;;;5015955;28;20469;-67
2021/03/23 09:54:52;;;;;;;27.90;25.13;;;;;;;;;;5019887;28;20449;-67
2021/03/23 09:57:21;;;;;;;25.40;22.90;;;;;;;;;;5033827;28;20449;-67
2021/03/23 09:59:49;;;;;;;29.07;26.13;;;;;;;;;;5033338;28;20467;-67
2021/03/23 10:02:22;;;;;;;26.90;24.20;;;;;;;;;;5033433;28;20940;-67
2021/03/23 10:04:49;;;;;;;27.80;25.00;;;;;;;;;;5033004;28;20453;-67
2021/03/23 10:07:26;;;;;;;31.00;25.13;;;;;;;;;;5056133;22;20503;-64
2021/03/23 10:09:53;;;;;;;29.93;25.60;;;;;;;;;;5042774;28;20487;-64
2021/03/23 10:12:28;;;;;;;25.73;23.03;;;;;;;;;;5047955;28;20440;-64
2021/03/23 10:14:54;;;;;;;27.13;24.43;;;;;;;;;;5032707;28;20850;-62
2021/03/23 10:17:24;;;;;;;27.17;24.10;;;;;;;;;;5016342;28;20580;-63
2021/03/23 10:19:52;;;;;;;27.80;24.43;;;;;;;;;;5012570;28;20481;-63
2021/03/23 10:22:27;;;;;;;20.50;17.27;;;;;;;;;;5011950;28;20454;-64
2021/03/23 10:24:54;;;;;;;29.03;21.57;;;;;;;;;;5012825;28;21095;-63
2021/03/23 10:27:22;;;;;;;27.47;24.33;;;;;;;;;;5012204;28;20473;-63
2021/03/23 10:30:04;;;;;;;34.43;25.00;;;;;;;;;;5012605;28;20458;-63
2021/03/23 10:32:33;;;;;;;30.73;23.93;;;;;;;;;;5013104;28;20466;-64
2021/03/23 10:35:11;;;;;;;27.07;24.17;;;;;;;;;;5012900;28;20537;-64
2021/03/23 10:37:38;;;;;;;29.47;25.80;;;;;;;;;;5011687;28;20477;-64
2021/03/23 10:40:06;;;;;;;25.60;23.10;;;;;;;;;;5011946;28;20870;-63
2021/03/23 10:42:33;;;;;;;9.67;6.50;;;;;;;;;;5012324;28;20460;-64
2021/03/23 10:45:27;;;;;;;7.97;4.93;;;;;;;;;;5017930;28;20524;-63
2021/03/23 10:48:01;;;;;;;7.93;4.10;;;;;;;;;;5006794;28;20457;-61
2021/03/23 10:50:30;;;;;;;6.07;3.80;;;;;;;;;;5030235;28;20448;-61
2021/03/23 10:53:09;;;;;;;9.00;5.50;;;;;;;;;;5012503;28;20523;-61
2021/03/23 10:55:38;;;;;;;5.20;4.60;;;;;;;;;;5012409;28;20430;-61
2021/03/23 10:58:15;;;;;;;6.80;4.50;;;;;;;;;;5022346;28;20545;-61
2021/03/23 11:00:42;;;;;;;26.27;23.70;;;;;;;;;;5031925;28;21030;-63
2021/03/23 11:03:13;;;;;;;27.43;24.50;;;;;;;;;;5014661;28;20488;-65
2021/03/23 11:05:44;;;;;;;25.87;23.27;;;;;;;;;;5008892;28;20484;-64
2021/03/23 11:08:13;;;;;;;27.27;24.37;;;;;;;;;;5014165;28;20484;-64
2021/03/23 11:10:40;;;;;;;27.17;24.23;;;;;;;;;;5024342;28;20493;-64
2021/03/23 11:13:07;;;;;;;27.00;24.30;;;;;;;;;;5011765;28;20536;-65
2021/03/23 11:15:36;;;;;;;27.43;24.50;;;;;;;;;;5011069;28;20528;-64
2021/03/23 11:18:04;;;;;;;26.07;23.37;;;;;;;;;;5014518;28;20483;-64
2021/03/23 11:20:35;;;;;;;28.10;25.30;;;;;;;;;;5015233;28;20821;-64
2021/03/23 11:23:05;;;;;;;25.57;22.93;;;;;;;;;;5011654;28;20592;-64
2021/03/23 11:25:31;;;;;;;26.77;23.90;;;;;;;;;;5011265;28;20494;-65
2021/03/23 11:28:02;;;;;;;28.50;24.57;;;;;;;;;;5009515;28;20480;-63
2021/03/23 11:30:29;;;;;;;25.07;22.47;;;;;;;;;;5004221;28;20478;-64
2021/03/23 11:32:55;;;;;;;26.17;23.47;;;;;;;;;;4999282;28;20465;-63
2021/03/23 11:35:23;;;;;;;25.70;23.03;;;;;;;;;;5010995;28;20984;-64
2021/03/23 11:37:50;;;;;;;26.57;23.70;;;;;;;;;;5010259;28;20490;-63
2021/03/23 11:40:18;;;;;;;26.33;23.63;;;;;;;;;;5020084;28;20492;-64
2021/03/23 11:42:46;;;;;;;28.27;25.47;;;;;;;;;;5010482;28;21022;-65
2021/03/23 11:45:19;;;;;;;30.70;24.17;;;;;;;;;;5011709;28;20523;-65
2021/03/23 11:47:48;;;;;;;28.37;25.23;;;;;;;;;;5011381;28;20477;-65
2021/03/23 11:50:19;;;;;;;26.20;23.33;;;;;;;;;;5011040;28;20458;-66
2021/03/23 11:52:45;;;;;;;26.70;23.10;;;;;;;;;;5012871;28;20500;-65
2021/03/23 11:55:16;;;;;;;25.87;22.93;;;;;;;;;;5010386;28;21003;-66
2021/03/23 11:57:43;;;;;;;26.13;23.50;;;;;;;;;;5010988;28;20476;-65
2021/03/23 12:00:13;;;;;;;26.53;23.73;;;;;;;;;;5016117;28;20448;-65
2021/03/23 12:02:40;;;;;;;24.40;22.00;;;;;;;;;;5012848;28;20450;-65
2021/03/23 12:05:08;;;;;;;26.90;24.00;;;;;;;;;;5013369;28;20449;-65
2021/03/23 12:07:40;;;;;;;27.17;24.30;;;;;;;;;;5010460;28;20535;-66
2021/03/23 12:10:10;;;;;;;27.20;24.40;;;;;;;;;;5011310;28;20548;-65
2021/03/23 12:12:41;;;;;;;26.47;23.67;;;;;;;;;;5010965;28;20545;-65
2021/03/23 12:15:12;;;;;;;25.73;23.33;;;;;;;;;;5011860;28;20438;-65
2021/03/23 12:17:40;;;;;;;27.03;24.23;;;;;;;;;;5011379;28;20481;-66
2021/03/23 12:20:10;;;;;;;28.17;25.20;;;;;;;;;;5011001;28;20556;-66
2021/03/23 12:22:38;;;;;;;28.73;24.30;;;;;;;;;;5011551;28;20485;-65
2021/03/23 12:25:05;;;;;;;29.30;25.97;;;;;;;;;;5011387;28;20528;-65
2021/03/23 12:27:32;;;;;;;29.23;26.13;;;;;;;;;;5023654;28;20552;-65
2021/03/23 12:30:00;;;;;;;5.60;5.10;;;;;;;;;;5011383;28;20453;-65
2021/03/23 12:32:27;;;;;;;6.20;4.10;;;;;;;;;;5011742;28;20453;-63
2021/03/23 12:34:54;;;;;;;5.23;4.03;;;;;;;;;;5011794;28;20503;-62
2021/03/23 12:37:21;;;;;;;22.80;20.10;;;;;;;;;;5012691;28;20473;-61
2021/03/23 12:39:48;;;;;;;14.83;13.37;;;;;;;;;;5014327;28;20503;-61
2021/03/23 12:42:16;;;;;;;6.80;6.20;;;;;;;;;;5000885;28;20453;-61
2021/03/23 12:44:43;;;;;;;18.87;15.90;;;;;;;;;;5013737;28;20536;-61
2021/03/23 12:47:12;;;;;;;6.83;5.97;;;;;;;;;;5012969;28;20542;-62
2021/03/23 12:49:38;;;;;;;9.10;6.20;;;;;;;;;;5013582;28;20964;-61
2021/03/23 12:52:06;;;;;;;21.57;19.40;;;;;;;;;;5014422;28;20600;-62
2021/03/23 12:54:35;;;;;;;16.63;13.90;;;;;;;;;;5025958;28;20518;-62
2021/03/23 12:57:02;;;;;;;21.70;19.10;;;;;;;;;;5025110;28;20515;-61
2021/03/23 12:59:30;;;;;;;23.10;20.33;;;;;;;;;;5020597;28;20450;-60
2021/03/23 13:01:57;;;;;;;23.03;18.87;;;;;;;;;;5019694;28;20469;-63
2021/03/23 13:04:25;;;;;;;22.37;19.90;;;;;;;;;;5019157;28;20473;-60
2021/03/23 13:06:53;;;;;;;23.23;19.60;;;;;;;;;;5019498;28;20620;-60
2021/03/23 13:09:19;;;;;;;23.07;20.60;;;;;;;;;;5024207;28;20520;-61
2021/03/23 13:11:48;;;;;;;25.03;21.50;;;;;;;;;;5023028;28;20971;-60
2021/03/23 13:14:20;;;;;;;29.90;26.73;;;;;;;;;;5022159;28;20454;-63
2021/03/23 13:16:48;;;;;;;33.47;29.87;;;;;;;;;;5022664;28;20461;-63
2021/03/23 13:19:15;;;;;;;30.63;27.50;;;;;;;;;;5022690;28;20517;-63
2021/03/23 13:21:45;;;;;;;30.10;26.07;;;;;;;;;;5022391;28;20484;-63
2021/03/23 13:24:22;;;;;;;29.90;26.80;;;;;;;;;;5021916;28;20449;-63
2021/03/23 13:26:49;;;;;;;28.80;25.80;;;;;;;;;;5003865;28;20489;-62
2021/03/23 13:29:15;;;;;;;29.13;26.03;;;;;;;;;;5014620;28;20450;-63
2021/03/23 13:31:43;;;;;;;28.13;25.33;;;;;;;;;;5014547;28;20548;-63
2021/03/23 13:34:13;;;;;;;30.50;27.33;;;;;;;;;;5014237;28;20453;-62
2021/03/23 13:36:41;;;;;;;29.80;26.90;;;;;;;;;;5017620;28;20476;-62
2021/03/23 13:39:11;;;;;;;30.83;27.70;;;;;;;;;;5014708;28;20473;-63
2021/03/23 13:41:38;;;;;;;31.47;28.17;;;;;;;;;;5014336;28;20453;-62
2021/03/23 13:44:07;;;;;;;30.07;26.87;;;;;;;;;;5013643;28;20449;-62
2021/03/23 13:46:38;;;;;;;32.70;29.20;;;;;;;;;;5013850;28;20492;-62
2021/03/23 13:49:04;;;;;;;33.37;29.77;;;;;;;;;;5013479;28;20468;-62
2021/03/23 13:51:32;;;;;;;34.90;31.40;;;;;;;;;;5013671;28;20461;-62
2021/03/23 13:53:59;;;;;;;30.40;27.30;;;;;;;;;;5013337;28;20489;-62
2021/03/23 13:56:26;;;;;;;29.80;26.83;;;;;;;;;;5012475;28;20482;-62
2021/03/23 13:58:53;;;;;;;29.50;26.30;;;;;;;;;;5009440;28;20508;-63
2021/03/23 14:01:20;;;;;;;29.57;26.37;;;;;;;;;;5010842;28;20462;-62
2021/03/23 14:03:48;;;;;;;31.33;27.93;;;;;;;;;;5003054;28;20468;-62
2021/03/23 14:06:17;;;;;;;27.77;24.97;;;;;;;;;;5012241;28;20556;-63
2021/03/23 14:08:44;;;;;;;27.97;25.23;;;;;;;;;;5013111;28;20445;-62
2021/03/23 14:11:12;;;;;;;30.13;26.17;;;;;;;;;;5013500;28;20566;-63
2021/03/23 14:13:42;;;;;;;28.27;25.50;;;;;;;;;;5013430;28;20461;-62
2021/03/23 14:16:09;;;;;;;28.23;25.40;;;;;;;;;;5012745;28;20785;-63
2021/03/23 14:18:36;;;;;;;27.10;24.30;;;;;;;;;;5012089;28;20461;-63
2021/03/23 14:21:04;;;;;;;26.57;23.90;;;;;;;;;;5012324;28;20500;-62
2021/03/23 14:23:32;;;;;;;26.77;24.00;;;;;;;;;;5014068;28;20515;-63
2021/03/23 14:25:59;;;;;;;24.53;22.03;;;;;;;;;;5013209;28;20492;-63
2021/03/23 14:28:27;;;;;;;23.10;20.60;;;;;;;;;;5016682;28;20464;-63
2021/03/23 14:30:56;;;;;;;21.90;19.57;;;;;;;;;;5013716;28;20532;-63
2021/03/23 14:33:23;;;;;;;19.20;17.37;;;;;;;;;;5018568;28;20446;-63
2021/03/23 14:35:50;;;;;;;20.53;18.43;;;;;;;;;;5021920;28;20474;-63
2021/03/23 14:38:18;;;;;;;18.90;17.10;;;;;;;;;;5029148;28;20450;-63
2021/03/23 14:40:45;;;;;;;18.87;16.97;;;;;;;;;;5021414;28;20922;-63
2021/03/23 14:43:13;;;;;;;20.80;18.70;;;;;;;;;;5021038;28;20509;-63
2021/03/23 14:45:40;;;;;;;20.67;18.57;;;;;;;;;;5026935;28;20500;-63
2021/03/23 14:48:08;;;;;;;20.17;18.23;;;;;;;;;;5013295;28;20548;-62